Time;durP1;ratioP1;P1;durP2;ratioP2;P2;SDS_P1;SDS_P2;PMS_P1;PMS_P2;Temp;Humidity;BMP_temperature;BMP_pressure;BME280_temperature;BME280_humidity;BME280_pressure;Samples;Min_cycle;Max_cycle;Signal;HPM_P1;HPM_P2
2023/01/07 00:01:24;;;;;;;6.88;6.18;;;23.70;55.60;;;;;;5023536;28;20512;-68
2023/01/07 00:03:51;;;;;;;7.22;6.10;;;23.70;55.60;;;;;;5027371;28;20025;-71
2023/01/07 00:06:19;;;;;;;7.45;6.22;;;23.70;55.50;;;;;;5032826;28;20037;-70
2023/01/07 00:08:47;;;;;;;6.25;5.65;;;23.70;55.50;;;;;;5023363;28;20022;-70
2023/01/07 00:11:19;;;;;;;6.07;5.47;;;23.70;55.40;;;;;;5025622;28;20489;-69
2023/01/07 00:13:45;;;;;;;6.30;5.63;;;23.70;55.40;;;;;;5028939;28;20493;-69
2023/01/07 00:16:14;;;;;;;6.60;5.78;;;23.70;55.40;;;;;;5025545;28;20128;-69
2023/01/07 00:18:40;;;;;;;6.23;5.63;;;23.80;55.40;;;;;;5023118;28;20125;-69
2023/01/07 00:21:08;;;;;;;6.80;5.60;;;23.80;55.30;;;;;;5020462;28;20331;-68
2023/01/07 00:23:36;;;;;;;6.35;5.47;;;23.80;55.30;;;;;;5022762;28;20049;-71
2023/01/07 00:26:13;;;;;;;6.55;5.47;;;23.80;55.20;;;;;;5037838;28;20052;-70
2023/01/07 00:28:43;;;;;;;6.13;5.50;;;23.80;55.20;;;;;;5025934;28;20029;-70
2023/01/07 00:31:18;;;;;;;6.30;5.57;;;23.80;55.20;;;;;;5024222;28;20024;-70
2023/01/07 00:36:21;;;;;;;5.95;5.35;;;23.80;55.10;;;;;;5019836;28;20026;-70
2023/01/07 00:38:47;;;;;;;6.07;5.32;;;23.80;55.10;;;;;;5020106;28;20068;-69
2023/01/07 00:41:13;;;;;;;6.32;5.25;;;23.80;55.00;;;;;;5020055;28;20025;-69
2023/01/07 00:43:38;;;;;;;6.30;5.20;;;23.80;55.00;;;;;;5021448;28;20136;-68
2023/01/07 00:46:04;;;;;;;5.47;4.80;;;23.80;55.00;;;;;;5022588;28;20143;-70
2023/01/07 00:48:30;;;;;;;6.38;5.38;;;23.90;55.00;;;;;;5021348;28;20080;-70
2023/01/07 00:50:55;;;;;;;6.07;5.47;;;23.90;55.00;;;;;;5017535;28;20477;-70
2023/01/07 00:53:21;;;;;;;6.85;5.00;;;23.80;54.80;;;;;;5020867;28;20029;-69
2023/01/07 00:55:48;;;;;;;6.05;4.95;;;23.90;54.90;;;;;;5025052;28;20026;-71
2023/01/07 00:58:17;;;;;;;5.60;4.90;;;23.90;55.00;;;;;;5024836;28;20030;-70
2023/01/07 01:00:43;;;;;;;;;;;23.90;55.00;;;;;;5020205;28;20036;-70
2023/01/07 01:03:10;;;;;;;5.43;4.72;;;23.90;55.00;;;;;;5022809;28;19905;-69
2023/01/07 01:05:36;;;;;;;5.05;4.55;;;23.90;55.00;;;;;;5017860;28;20041;-68
2023/01/07 01:08:01;;;;;;;5.97;5.25;;;23.90;54.90;;;;;;5018109;28;20394;-69
2023/01/07 01:10:27;;;;;;;5.53;4.75;;;23.90;54.80;;;;;;5020267;28;20028;-70
2023/01/07 01:12:53;;;;;;;6.13;4.82;;;23.90;54.80;;;;;;5021457;28;20026;-69
2023/01/07 01:15:18;;;;;;;5.05;4.32;;;23.90;54.80;;;;;;5015511;28;20026;-65
2023/01/07 01:17:44;;;;;;;5.72;4.43;;;23.90;54.70;;;;;;5022133;28;20566;-65
2023/01/07 01:20:13;;;;;;;4.75;4.15;;;23.90;54.70;;;;;;5023722;28;20119;-66
2023/01/07 01:22:40;;;;;;;5.50;4.60;;;23.90;54.70;;;;;;5017519;28;20060;-65
2023/01/07 01:25:06;;;;;;;5.50;4.68;;;23.80;54.70;;;;;;5020605;28;20030;-66
2023/01/07 01:27:31;;;;;;;4.85;4.28;;;23.80;54.70;;;;;;5018044;28;20064;-66
2023/01/07 01:30:01;;;;;;;5.30;4.50;;;23.80;54.70;;;;;;5019411;28;20060;-65
2023/01/07 01:32:27;;;;;;;;;;;23.70;54.70;;;;;;5018697;28;20026;-65
2023/01/07 01:34:52;;;;;;;4.97;4.47;;;23.70;54.80;;;;;;5020160;28;19909;-66
2023/01/07 01:37:18;;;;;;;4.55;4.00;;;23.70;54.80;;;;;;5019613;28;20026;-65
2023/01/07 01:39:44;;;;;;;5.88;4.60;;;23.60;54.80;;;;;;5023148;28;20121;-66
2023/01/07 01:42:14;;;;;;;5.13;4.28;;;23.60;54.80;;;;;;5015674;28;20495;-65
2023/01/07 01:44:56;;;;;;;5.72;4.57;;;23.60;54.80;;;;;;5035144;28;20021;-66
2023/01/07 01:47:37;;;;;;;5.22;4.38;;;23.60;54.90;;;;;;5021185;28;20481;-65
2023/01/07 01:50:06;;;;;;;5.40;4.30;;;23.50;54.90;;;;;;5019005;28;20124;-66
2023/01/07 01:53:12;;;;;;;4.90;4.23;;;23.50;54.90;;;;;;5014603;28;20535;-65
2023/01/07 01:55:48;;;;;;;5.18;4.22;;;23.50;55.00;;;;;;5017359;28;20052;-66
2023/01/07 01:58:26;;;;;;;5.20;4.28;;;23.50;55.10;;;;;;5015720;28;20053;-66
2023/01/07 02:00:52;;;;;;;4.70;3.97;;;23.40;55.00;;;;;;5022333;28;20034;-66
2023/01/07 02:03:19;;;;;;;5.28;4.30;;;23.40;55.10;;;;;;5017256;28;20044;-65
2023/01/07 02:05:46;;;;;;;4.80;4.20;;;23.40;55.10;;;;;;5021501;28;20036;-65
2023/01/07 02:08:13;;;;;;;5.18;4.10;;;23.40;55.10;;;;;;5017392;28;20033;-66
2023/01/07 02:10:39;;;;;;;4.78;4.03;;;23.30;55.10;;;;;;5018726;28;20033;-65
2023/01/07 02:13:19;;;;;;;4.38;3.78;;;23.30;55.10;;;;;;5017634;28;20022;-66
2023/01/07 02:15:57;;;;;;;4.32;3.60;;;23.30;55.20;;;;;;5020464;28;20080;-66
2023/01/07 02:18:40;;;;;;;4.57;4.03;;;23.20;55.20;;;;;;5017022;28;20029;-65
2023/01/07 02:22:02;;;;;;;4.57;3.90;;;23.20;55.20;;;;;;5017771;28;20030;-65
2023/01/07 02:24:57;;;;;;;4.43;3.90;;;23.20;55.30;;;;;;5024039;28;20046;-67
2023/01/07 02:27:38;;;;;;;4.78;3.90;;;23.20;55.30;;;;;;5017496;28;20065;-65
2023/01/07 02:30:28;;;;;;;5.28;3.80;;;23.10;55.30;;;;;;5021274;28;20113;-66
2023/01/07 02:33:07;;;;;;;4.95;4.07;;;23.10;55.30;;;;;;5021537;28;20552;-66
2023/01/07 02:36:03;;;;;;;4.73;3.93;;;23.10;55.30;;;;;;5022585;28;20017;-66
2023/01/07 02:38:55;;;;;;;4.90;3.97;;;23.10;55.40;;;;;;5021998;28;20045;-66
2023/01/07 02:41:58;;;;;;;4.53;3.78;;;23.00;55.40;;;;;;5018989;28;20092;-66
2023/01/07 02:44:58;;;;;;;4.35;3.60;;;23.00;55.40;;;;;;5022623;28;20040;-66
2023/01/07 02:47:37;;;;;;;4.15;3.53;;;23.00;55.50;;;;;;5020913;28;20457;-65
2023/01/07 02:50:05;;;;;;;5.13;3.72;;;23.00;55.50;;;;;;5016810;28;20029;-66
2023/01/07 02:52:32;;;;;;;5.20;3.78;;;23.00;55.60;;;;;;5018405;28;20131;-65
2023/01/07 02:55:27;;;;;;;4.78;3.90;;;22.90;56.00;;;;;;5021848;28;20025;-65
2023/01/07 02:58:28;;;;;;;4.60;3.63;;;22.90;55.60;;;;;;5024950;28;20044;-66
2023/01/07 03:01:02;;;;;;;3.97;3.40;;;22.90;55.60;;;;;;5034801;28;20132;-66
2023/01/07 03:03:41;;;;;;;4.85;4.20;;;22.80;55.60;;;;;;5022373;28;20049;-65
2023/01/07 03:06:29;;;;;;;4.47;3.83;;;22.80;55.60;;;;;;5024002;28;20148;-65
2023/01/07 03:09:02;;;;;;;3.97;3.50;;;22.80;55.60;;;;;;5019910;28;20291;-65
2023/01/07 03:11:35;;;;;;;4.82;3.55;;;22.80;55.70;;;;;;5020787;28;20022;-66
2023/01/07 03:14:36;;;;;;;4.05;3.45;;;22.80;55.70;;;;;;5018393;28;20029;-66
2023/01/07 03:17:05;;;;;;;4.15;3.22;;;22.80;55.70;;;;;;5016436;28;20369;-65
2023/01/07 03:19:35;;;;;;;4.53;3.30;;;22.70;55.70;;;;;;5022371;28;20029;-65
2023/01/07 03:22:04;;;;;;;4.45;3.60;;;22.70;55.70;;;;;;5027943;28;20033;-66
2023/01/07 03:24:32;;;;;;;4.53;3.40;;;22.70;55.80;;;;;;5016971;28;20096;-66
2023/01/07 03:27:01;;;;;;;4.05;3.30;;;22.70;55.80;;;;;;5020335;28;20499;-65
2023/01/07 03:29:28;;;;;;;3.67;3.13;;;22.70;55.80;;;;;;5017747;28;20090;-66
2023/01/07 03:32:11;;;;;;;3.88;3.30;;;22.60;55.80;;;;;;5019686;28;20033;-66
2023/01/07 03:34:38;;;;;;;4.38;3.40;;;22.60;55.80;;;;;;5015951;28;20061;-65
2023/01/07 03:37:12;;;;;;;3.35;3.00;;;22.60;55.80;;;;;;5021452;28;20025;-65
2023/01/07 03:39:40;;;;;;;3.90;3.22;;;22.60;55.90;;;;;;5015587;28;20515;-65
2023/01/07 03:44:52;;;;;;;3.58;2.90;;;22.50;55.90;;;;;;5018277;28;20064;-65
2023/01/07 03:47:18;;;;;;;3.72;3.10;;;22.60;55.90;;;;;;5019137;28;20441;-65
2023/01/07 03:49:43;;;;;;;3.85;3.22;;;22.50;55.90;;;;;;5021917;28;20469;-65
2023/01/07 03:52:09;;;;;;;3.95;3.15;;;22.50;56.00;;;;;;5019023;28;20030;-65
2023/01/07 03:54:35;;;;;;;3.33;3.00;;;22.50;56.00;;;;;;5018113;28;20051;-66
2023/01/07 03:57:00;;;;;;;3.40;2.85;;;22.50;56.00;;;;;;5019202;28;20113;-65
2023/01/07 03:59:26;;;;;;;3.40;2.80;;;22.50;56.00;;;;;;5018765;28;20042;-65
2023/01/07 04:01:51;;;;;;;3.88;3.00;;;22.50;56.00;;;;;;5021023;28;20017;-65
2023/01/07 04:04:17;;;;;;;3.50;2.70;;;22.40;56.00;;;;;;5017236;28;20033;-66
2023/01/07 04:06:43;;;;;;;3.30;2.70;;;22.40;56.10;;;;;;5021657;28;20129;-65
2023/01/07 04:09:10;;;;;;;3.60;2.92;;;22.40;56.10;;;;;;5021571;28;20034;-66
2023/01/07 04:11:35;;;;;;;3.60;2.90;;;22.40;56.10;;;;;;5016152;28;20022;-66
2023/01/07 04:14:01;;;;;;;3.80;2.80;;;22.40;56.20;;;;;;5021338;28;20123;-65
2023/01/07 04:16:27;;;;;;;3.67;2.88;;;22.40;56.20;;;;;;5022379;28;20123;-66
2023/01/07 04:18:52;;;;;;;3.80;2.85;;;22.40;56.20;;;;;;5018137;28;20068;-65
2023/01/07 04:21:18;;;;;;;3.65;2.95;;;22.30;56.70;;;;;;5017729;28;20029;-66
2023/01/07 04:23:43;;;;;;;3.47;2.80;;;22.30;56.20;;;;;;5021173;28;20457;-65
2023/01/07 04:26:09;;;;;;;3.30;2.50;;;22.30;56.20;;;;;;5021813;28;20029;-65
2023/01/07 04:28:35;;;;;;;2.97;2.45;;;22.30;56.30;;;;;;5018296;28;20428;-66
2023/01/07 04:31:00;;;;;;;3.38;2.60;;;22.30;56.30;;;;;;5020122;28;20026;-65
2023/01/07 04:33:27;;;;;;;3.28;2.60;;;22.30;56.30;;;;;;5019009;28;20120;-65
2023/01/07 04:35:53;;;;;;;3.05;2.60;;;22.20;56.30;;;;;;5018987;28;20065;-65
2023/01/07 04:38:18;;;;;;;3.00;2.50;;;22.20;56.30;;;;;;5015132;28;20496;-65
2023/01/07 04:40:44;;;;;;;3.40;2.70;;;22.20;56.30;;;;;;5018707;28;20031;-65
2023/01/07 04:43:10;;;;;;;3.33;2.60;;;22.20;56.30;;;;;;5024743;28;20429;-65
2023/01/07 04:45:35;;;;;;;3.08;2.55;;;22.20;56.30;;;;;;5022107;28;20109;-66
2023/01/07 04:48:01;;;;;;;3.78;2.90;;;22.20;56.40;;;;;;5019989;28;20362;-65
2023/01/07 04:50:27;;;;;;;3.53;2.65;;;22.20;56.40;;;;;;5016800;28;20033;-65
2023/01/07 04:52:52;;;;;;;3.63;2.63;;;22.20;56.40;;;;;;5018437;28;20121;-65
2023/01/07 04:55:18;;;;;;;2.88;2.25;;;22.20;56.40;;;;;;5022396;28;20037;-65
2023/01/07 04:57:44;;;;;;;3.03;2.50;;;22.20;56.50;;;;;;5017615;28;20449;-65
2023/01/07 05:00:10;;;;;;;3.10;2.65;;;22.10;56.40;;;;;;5020665;28;20030;-65
2023/01/07 05:02:35;;;;;;;3.00;2.50;;;22.10;56.40;;;;;;5017481;28;20113;-66
2023/01/07 05:05:01;;;;;;;3.00;2.60;;;22.10;56.40;;;;;;5021328;28;20029;-65
2023/01/07 05:07:27;;;;;;;3.10;2.60;;;22.10;56.50;;;;;;5019249;28;20112;-65
2023/01/07 05:09:53;;;;;;;3.30;2.63;;;22.10;56.50;;;;;;5019642;28;20121;-65
2023/01/07 05:12:18;;;;;;;3.25;2.50;;;22.10;56.60;;;;;;5023054;28;20030;-65
2023/01/07 05:14:44;;;;;;;2.92;2.47;;;22.10;56.60;;;;;;5018524;28;20350;-65
2023/01/07 05:17:09;;;;;;;2.97;2.60;;;22.10;56.60;;;;;;5023862;28;20025;-66
2023/01/07 05:19:35;;;;;;;3.35;2.60;;;22.10;56.60;;;;;;5018228;28;20070;-66
2023/01/07 05:22:01;;;;;;;2.85;2.33;;;22.10;57.10;;;;;;5017610;28;20090;-65
2023/01/07 05:24:26;;;;;;;2.90;2.40;;;22.10;56.60;;;;;;5018890;28;20046;-65
2023/01/07 05:26:52;;;;;;;2.92;2.35;;;22.00;56.60;;;;;;5016709;28;20030;-66
2023/01/07 05:29:18;;;;;;;3.05;2.55;;;22.00;57.20;;;;;;5019467;28;20389;-65
2023/01/07 05:31:43;;;;;;;3.47;2.40;;;22.00;56.70;;;;;;5020743;28;20033;-66
2023/01/07 05:34:09;;;;;;;3.20;2.55;;;22.00;56.70;;;;;;5016274;28;20033;-65
2023/01/07 05:36:34;;;;;;;3.03;2.40;;;22.00;56.70;;;;;;5014914;28;20469;-66
2023/01/07 05:39:00;;;;;;;3.20;2.40;;;22.00;56.70;;;;;;5019246;28;20168;-65
2023/01/07 05:41:26;;;;;;;4.57;2.50;;;22.00;56.70;;;;;;5017054;28;20068;-65
2023/01/07 05:43:51;;;;;;;2.58;2.10;;;22.00;56.80;;;;;;5023304;28;20049;-66
2023/01/07 05:46:17;;;;;;;2.92;2.17;;;22.00;56.80;;;;;;5022788;28;20025;-66
2023/01/07 05:48:43;;;;;;;2.97;2.20;;;22.00;56.90;;;;;;5014927;28;20053;-65
2023/01/07 05:51:08;;;;;;;2.95;2.25;;;22.00;56.90;;;;;;5016196;28;20083;-65
2023/01/07 05:53:34;;;;;;;3.00;2.17;;;22.00;56.90;;;;;;5022614;28;20033;-65
2023/01/07 05:56:00;;;;;;;3.35;2.35;;;22.00;56.90;;;;;;5017576;28;20493;-66
2023/01/07 05:58:26;;;;;;;3.20;2.40;;;21.90;56.90;;;;;;5021887;28;20046;-65
2023/01/07 06:00:52;;;;;;;3.22;2.20;;;21.90;56.90;;;;;;5028508;28;20037;-66
2023/01/07 06:03:19;;;;;;;3.05;2.30;;;21.90;56.90;;;;;;5019026;28;20049;-65
2023/01/07 06:05:46;;;;;;;2.78;2.22;;;21.90;57.00;;;;;;5024535;28;20021;-65
2023/01/07 06:08:11;;;;;;;2.75;2.00;;;21.90;57.00;;;;;;5023624;28;20040;-65
2023/01/07 06:10:37;;;;;;;3.10;2.20;;;21.90;57.00;;;;;;5023009;28;20025;-65
2023/01/07 06:13:03;;;;;;;3.00;2.20;;;21.90;57.00;;;;;;5024846;28;20032;-66
2023/01/07 06:15:29;;;;;;;3.00;2.30;;;21.90;57.00;;;;;;5020784;28;20022;-65
2023/01/07 06:17:54;;;;;;;2.90;2.10;;;21.90;57.00;;;;;;5022676;28;20112;-65
2023/01/07 06:20:21;;;;;;;3.25;2.28;;;21.80;57.00;;;;;;5023060;28;20025;-66
2023/01/07 06:22:46;;;;;;;3.55;2.08;;;21.90;57.10;;;;;;5026022;28;20095;-66
2023/01/07 06:25:12;;;;;;;3.15;2.10;;;21.80;57.00;;;;;;5022608;28;20025;-65
2023/01/07 06:27:41;;;;;;;3.00;2.03;;;21.80;57.00;;;;;;5035975;28;20044;-66
2023/01/07 06:30:08;;;;;;;3.05;2.10;;;21.80;57.00;;;;;;5022977;28;20100;-65
2023/01/07 06:32:42;;;;;;;3.25;2.17;;;21.80;57.00;;;;;;5025931;28;20416;-66
2023/01/07 06:35:09;;;;;;;3.00;2.20;;;21.80;57.10;;;;;;5024203;28;20112;-66
2023/01/07 06:37:36;;;;;;;2.90;1.90;;;21.80;57.10;;;;;;5023285;28;20358;-65
2023/01/07 06:40:02;;;;;;;3.28;1.95;;;21.80;57.10;;;;;;5020750;28;20045;-65
2023/01/07 06:42:27;;;;;;;2.95;2.00;;;21.80;57.10;;;;;;5019669;28;20038;-66
2023/01/07 06:44:53;;;;;;;3.08;2.10;;;21.80;57.10;;;;;;5019262;28;20030;-66
2023/01/07 06:47:19;;;;;;;2.45;1.60;;;21.80;57.10;;;;;;5022828;28;20021;-65
2023/01/07 06:49:44;;;;;;;3.22;2.17;;;21.80;57.10;;;;;;5022450;28;20030;-65
2023/01/07 06:52:10;;;;;;;2.70;1.90;;;21.80;57.10;;;;;;5021809;28;20512;-66
2023/01/07 06:54:35;;;;;;;3.25;2.22;;;21.80;57.10;;;;;;5017958;28;20022;-66
2023/01/07 06:57:01;;;;;;;3.05;2.00;;;21.80;57.10;;;;;;5025846;28;20046;-65
2023/01/07 06:59:27;;;;;;;2.92;2.13;;;21.70;57.40;;;;;;5022177;28;20515;-66
2023/01/07 07:01:52;;;;;;;2.80;2.10;;;21.70;57.10;;;;;;5020687;28;20599;-65
2023/01/07 07:04:18;;;;;;;2.40;1.80;;;21.70;57.10;;;;;;5019979;28;20033;-65
2023/01/07 07:06:43;;;;;;;2.53;1.80;;;21.70;57.10;;;;;;5024073;28;20021;-65
2023/01/07 07:09:09;;;;;;;2.83;2.22;;;21.70;57.10;;;;;;5024525;28;20115;-66
2023/01/07 07:11:35;;;;;;;3.03;2.10;;;21.70;57.10;;;;;;5019365;28;20029;-66
2023/01/07 07:14:02;;;;;;;2.78;1.90;;;21.70;57.10;;;;;;5018310;28;20033;-66
2023/01/07 07:16:28;;;;;;;2.88;1.90;;;21.70;57.10;;;;;;5019319;28;20493;-65
2023/01/07 07:18:54;;;;;;;3.00;2.13;;;21.70;57.10;;;;;;5021379;28;20025;-66
2023/01/07 07:21:19;;;;;;;2.80;1.90;;;21.70;57.10;;;;;;5019084;28;20025;-65
2023/01/07 07:23:45;;;;;;;2.72;2.10;;;21.70;57.10;;;;;;5018627;28;20034;-65
2023/01/07 07:26:10;;;;;;;2.67;2.08;;;21.70;57.10;;;;;;5020535;28;20034;-66
2023/01/07 07:28:36;;;;;;;2.63;1.80;;;21.70;57.10;;;;;;5020637;28;20033;-66
2023/01/07 07:31:02;;;;;;;3.28;2.17;;;21.70;57.10;;;;;;5026480;28;20108;-65
2023/01/07 07:33:28;;;;;;;2.80;1.92;;;21.70;57.60;;;;;;5019660;28;20112;-66
2023/01/07 07:35:55;;;;;;;2.38;1.90;;;21.70;57.10;;;;;;5020724;28;20417;-66
2023/01/07 07:38:20;;;;;;;2.70;2.00;;;21.70;57.10;;;;;;5020805;28;20140;-66
2023/01/07 07:40:46;;;;;;;2.40;1.70;;;21.70;57.10;;;;;;5021806;28;20113;-65
2023/01/07 07:43:13;;;;;;;2.63;1.75;;;21.70;57.10;;;;;;5034499;28;20080;-66
2023/01/07 07:45:42;;;;;;;2.50;1.80;;;21.60;57.10;;;;;;5018836;28;20022;-66
2023/01/07 07:48:09;;;;;;;2.33;1.75;;;21.60;57.00;;;;;;5021888;28;20041;-65
2023/01/07 07:50:35;;;;;;;2.92;1.90;;;21.60;57.00;;;;;;5017327;28;20034;-66
2023/01/07 07:53:00;;;;;;;2.90;1.88;;;21.60;57.10;;;;;;5022728;28;20018;-66
2023/01/07 07:55:26;;;;;;;2.97;2.05;;;21.60;57.00;;;;;;5024491;28;20473;-66
2023/01/07 07:57:53;;;;;;;2.67;1.85;;;21.60;57.10;;;;;;5019917;28;20079;-66
2023/01/07 08:00:19;;;;;;;2.70;1.80;;;21.60;57.60;;;;;;5021966;28;20468;-66
2023/01/07 08:02:45;;;;;;;3.00;1.90;;;21.60;57.10;;;;;;5019957;28;20084;-66
2023/01/07 08:05:11;;;;;;;2.50;1.70;;;21.60;57.10;;;;;;5021603;28;20026;-66
2023/01/07 08:07:37;;;;;;;2.50;1.70;;;21.60;57.10;;;;;;5020569;28;20022;-65
2023/01/07 08:10:04;;;;;;;2.40;1.70;;;21.60;57.10;;;;;;5021304;28;20366;-65
2023/01/07 08:12:30;;;;;;;2.65;1.75;;;21.60;57.20;;;;;;5019543;28;20495;-65
2023/01/07 08:14:56;;;;;;;2.65;1.73;;;21.60;57.10;;;;;;5023114;28;20423;-66
2023/01/07 08:17:21;;;;;;;2.40;1.70;;;21.60;57.20;;;;;;5019099;28;20057;-66
2023/01/07 08:19:47;;;;;;;2.50;1.60;;;21.60;57.20;;;;;;5015737;28;20029;-65
2023/01/07 08:22:12;;;;;;;2.50;1.65;;;21.50;57.10;;;;;;5022329;28;20038;-65
2023/01/07 08:24:39;;;;;;;2.40;1.80;;;21.60;57.20;;;;;;5020915;28;20048;-66
2023/01/07 08:27:04;;;;;;;2.80;1.90;;;21.50;57.20;;;;;;5017316;28;20075;-65
2023/01/07 08:29:30;;;;;;;2.20;1.70;;;21.50;57.10;;;;;;5017028;28;20025;-66
2023/01/07 08:31:56;;;;;;;2.20;1.40;;;21.50;57.20;;;;;;5022770;28;20033;-66
2023/01/07 08:34:21;;;;;;;2.30;1.60;;;21.50;57.20;;;;;;5018755;28;20815;-65
2023/01/07 08:36:47;;;;;;;2.20;1.50;;;21.60;57.20;;;;;;5021510;28;20025;-65
2023/01/07 08:39:12;;;;;;;2.13;1.60;;;21.50;57.20;;;;;;5021018;28;20060;-65
2023/01/07 08:41:38;;;;;;;2.17;1.38;;;21.50;57.20;;;;;;5023153;28;20068;-66
2023/01/07 08:44:04;;;;;;;2.17;1.60;;;21.50;57.20;;;;;;5018176;28;20033;-65
2023/01/07 08:46:29;;;;;;;2.03;1.40;;;21.50;57.30;;;;;;5018336;28;20032;-65
2023/01/07 08:48:55;;;;;;;1.80;1.30;;;21.50;57.30;;;;;;5017519;28;20037;-65
2023/01/07 08:51:20;;;;;;;2.10;1.42;;;21.50;57.80;;;;;;5015983;28;20374;-65
2023/01/07 08:53:46;;;;;;;1.85;1.30;;;21.50;57.30;;;;;;5020109;28;20026;-65
2023/01/07 08:56:12;;;;;;;2.10;1.40;;;21.50;57.30;;;;;;5016442;28;20091;-65
2023/01/07 08:58:41;;;;;;;2.28;1.42;;;21.50;57.30;;;;;;5016461;28;20037;-67
2023/01/07 09:01:06;;;;;;;2.55;1.60;;;21.50;57.40;;;;;;5016096;28;20112;-66
2023/01/07 09:03:33;;;;;;;1.67;1.35;;;21.50;57.40;;;;;;5016280;28;20112;-65
2023/01/07 09:05:59;;;;;;;3.67;1.92;;;21.50;57.50;;;;;;5017939;28;20030;-66
2023/01/07 09:08:24;;;;;;;2.00;1.33;;;21.50;57.50;;;;;;5019498;28;20084;-66
2023/01/07 09:10:50;;;;;;;2.30;1.30;;;21.50;57.50;;;;;;5019602;28;20025;-66
2023/01/07 09:13:16;;;;;;;1.83;1.35;;;21.50;57.50;;;;;;5018751;28;20362;-66
2023/01/07 09:15:42;;;;;;;2.58;1.48;;;21.50;57.50;;;;;;5021240;28;20018;-66
2023/01/07 09:18:07;;;;;;;1.80;1.30;;;21.40;57.50;;;;;;5018457;28;20084;-66
2023/01/07 09:20:33;;;;;;;2.33;1.50;;;21.40;57.50;;;;;;5016960;28;20033;-66
2023/01/07 09:22:58;;;;;;;2.05;1.40;;;21.40;57.50;;;;;;5019510;28;20057;-64
2023/01/07 09:25:24;;;;;;;2.08;1.40;;;21.50;57.60;;;;;;5014330;28;20025;-65
2023/01/07 09:27:50;;;;;;;2.22;1.33;;;21.40;57.60;;;;;;5014666;28;20018;-66
2023/01/07 09:30:16;;;;;;;1.50;1.10;;;21.40;57.60;;;;;;5017579;28;20425;-66
2023/01/07 09:32:42;;;;;;;1.60;1.20;;;21.40;57.60;;;;;;5024099;28;20033;-65
2023/01/07 09:35:09;;;;;;;2.22;1.50;;;21.40;57.60;;;;;;5027822;28;20052;-66
2023/01/07 09:37:34;;;;;;;1.83;1.30;;;21.40;57.70;;;;;;5029185;28;20480;-66
2023/01/07 09:40:00;;;;;;;1.92;1.30;;;21.40;57.70;;;;;;5028642;28;20048;-65
2023/01/07 09:42:35;;;;;;;1.95;1.30;;;21.50;57.80;;;;;;5027524;28;20033;-65
2023/01/07 09:45:18;;;;;;;2.30;1.30;;;21.40;57.80;;;;;;5023310;28;20362;-65
2023/01/07 09:47:48;;;;;;;1.80;1.30;;;21.40;57.80;;;;;;5024494;28;20034;-66
2023/01/07 09:50:39;;;;;;;1.83;1.30;;;21.50;57.80;;;;;;5025388;28;20389;-66
2023/01/07 09:53:15;;;;;;;1.92;1.23;;;21.40;57.80;;;;;;5023575;28;20108;-66
2023/01/07 09:55:42;;;;;;;2.20;1.30;;;21.40;57.80;;;;;;5024139;28;20558;-66
2023/01/07 09:58:15;;;;;;;1.50;1.10;;;21.40;57.80;;;;;;5018185;28;20445;-66
2023/01/07 10:01:01;;;;;;;1.60;1.20;;;21.40;57.80;;;;;;5023179;28;20129;-66
2023/01/07 10:03:39;;;;;;;1.73;1.20;;;21.40;57.80;;;;;;5023691;28;20030;-66
2023/01/07 10:06:07;;;;;;;1.80;1.20;;;21.40;57.80;;;;;;5024485;28;20022;-66
2023/01/07 10:08:44;;;;;;;1.50;1.10;;;21.40;57.80;;;;;;5026639;28;20033;-65
2023/01/07 10:11:35;;;;;;;1.83;1.10;;;21.40;57.80;;;;;;5022250;28;20022;-66
2023/01/07 10:14:37;;;;;;;1.40;1.02;;;21.40;57.80;;;;;;5024384;28;20456;-65
2023/01/07 10:17:08;;;;;;;1.90;1.20;;;21.40;57.80;;;;;;5025409;28;20029;-66
2023/01/07 10:19:46;;;;;;;1.55;1.05;;;21.50;57.80;;;;;;5024786;28;20105;-65
2023/01/07 10:22:20;;;;;;;1.58;1.10;;;21.40;57.80;;;;;;5023738;28;20109;-65
2023/01/07 10:24:50;;;;;;;1.30;1.02;;;21.50;57.80;;;;;;5022671;28;20108;-65
2023/01/07 10:27:31;;;;;;;1.70;1.30;;;21.40;58.30;;;;;;5022303;28;20038;-65
2023/01/07 10:30:01;;;;;;;2.67;1.40;;;21.40;57.80;;;;;;5023340;28;20045;-65
2023/01/07 10:32:35;;;;;;;1.55;1.15;;;21.40;57.80;;;;;;5025767;28;20029;-65
2023/01/07 10:35:01;;;;;;;2.22;1.27;;;21.50;57.80;;;;;;5026668;28;20038;-65
2023/01/07 10:37:36;;;;;;;2.40;1.20;;;21.50;57.90;;;;;;5024315;28;20021;-65
2023/01/07 10:40:11;;;;;;;2.25;1.27;;;21.50;57.80;;;;;;5025110;28;20041;-66
2023/01/07 10:43:03;;;;;;;1.98;1.30;;;21.40;57.80;;;;;;5025781;28;20094;-65
2023/01/07 10:45:34;;;;;;;1.80;1.10;;;21.50;57.80;;;;;;5031816;28;20037;-66
2023/01/07 10:48:24;;;;;;;2.20;1.25;;;21.50;57.80;;;;;;5022914;28;20025;-66
2023/01/07 10:51:09;;;;;;;2.00;1.20;;;21.50;57.80;;;;;;5022021;28;20029;-65
2023/01/07 10:53:54;;;;;;;1.83;1.10;;;21.50;57.80;;;;;;5019113;28;20029;-65
2023/01/07 10:56:29;;;;;;;1.50;1.02;;;21.50;57.80;;;;;;5019665;28;20121;-66
2023/01/07 10:58:55;;;;;;;2.33;1.20;;;21.50;57.80;;;;;;5020741;28;20033;-66
2023/01/07 11:01:28;;;;;;;3.40;1.35;;;21.50;57.80;;;;;;5019466;28;20569;-65
2023/01/07 11:03:56;;;;;;;1.33;1.05;;;21.50;57.80;;;;;;5028446;28;20030;-66
2023/01/07 11:06:45;;;;;;;1.75;1.20;;;21.50;57.80;;;;;;5020876;28;20108;-66
2023/01/07 11:09:28;;;;;;;1.83;1.17;;;21.50;57.80;;;;;;5025078;28;20500;-65
2023/01/07 11:11:56;;;;;;;2.25;1.30;;;21.40;57.80;;;;;;5021475;28;20030;-65
2023/01/07 11:14:27;;;;;;;1.92;1.20;;;21.50;57.80;;;;;;5026216;28;20021;-65
2023/01/07 11:17:13;;;;;;;1.67;1.20;;;21.50;57.80;;;;;;5019595;28;20026;-65
2023/01/07 11:19:53;;;;;;;2.22;1.27;;;21.50;57.80;;;;;;5017491;28;20037;-65
2023/01/07 11:22:29;;;;;;;1.50;1.10;;;21.50;57.80;;;;;;5018197;28;20053;-66
2023/01/07 11:24:57;;;;;;;1.60;1.10;;;21.50;57.80;;;;;;5020762;28;20029;-65
2023/01/07 11:27:25;;;;;;;1.50;1.00;;;21.50;57.70;;;;;;5018822;28;20026;-66
2023/01/07 11:29:56;;;;;;;1.58;0.90;;;21.50;57.80;;;;;;5015972;28;20037;-65
2023/01/07 11:32:34;;;;;;;1.80;1.17;;;21.50;57.80;;;;;;5015351;28;20072;-65
2023/01/07 11:35:01;;;;;;;1.58;1.15;;;21.50;57.80;;;;;;5020351;28;20117;-65
2023/01/07 11:37:39;;;;;;;2.20;1.20;;;21.50;57.70;;;;;;5023256;28;20044;-66
2023/01/07 11:40:11;;;;;;;1.00;0.87;;;21.50;57.70;;;;;;5018476;28;20104;-65
2023/01/07 11:42:48;;;;;;;1.63;1.00;;;21.50;57.70;;;;;;5019932;28;20052;-66
2023/01/07 11:45:16;;;;;;;1.35;1.00;;;21.50;57.80;;;;;;5021500;28;20030;-65
2023/01/07 11:48:05;;;;;;;1.88;1.08;;;21.50;57.70;;;;;;5024670;28;20029;-66
2023/01/07 11:50:57;;;;;;;2.15;1.27;;;21.50;57.80;;;;;;5022410;28;20361;-65
2023/01/07 11:53:52;;;;;;;2.17;1.38;;;21.50;57.80;;;;;;5019124;28;20397;-66
2023/01/07 11:56:32;;;;;;;2.22;1.10;;;21.50;57.80;;;;;;5035880;28;20119;-65
2023/01/07 11:59:16;;;;;;;;;;;21.50;57.80;;;;;;5035244;28;20624;-65
2023/01/07 12:01:45;;;;;;;1.42;1.00;;;21.50;57.80;;;;;;5023317;28;20004;-66
2023/01/07 12:04:28;;;;;;;2.53;1.08;;;21.50;57.80;;;;;;5022196;28;20087;-65
2023/01/07 12:06:57;;;;;;;1.90;0.98;;;21.50;57.80;;;;;;5018755;28;20018;-65
2023/01/07 12:09:31;;;;;;;1.83;1.00;;;21.50;57.80;;;;;;5019321;28;20079;-66
2023/01/07 12:12:30;;;;;;;1.73;1.02;;;21.50;57.80;;;;;;5020082;28;20034;-65
2023/01/07 12:15:00;;;;;;;2.13;1.25;;;21.50;57.80;;;;;;5016212;28;20088;-66
2023/01/07 12:17:28;;;;;;;1.60;1.10;;;21.60;57.80;;;;;;5018902;28;20096;-65
2023/01/07 12:19:57;;;;;;;1.80;1.25;;;21.60;57.90;;;;;;5020275;28;20033;-65
2023/01/07 12:22:41;;;;;;;2.70;1.42;;;21.60;57.90;;;;;;5017977;28;20034;-66
2023/01/07 12:25:23;;;;;;;2.15;1.17;;;21.60;58.00;;;;;;5018022;28;20048;-66
2023/01/07 12:28:11;;;;;;;2.17;1.13;;;21.60;57.90;;;;;;5019375;28;20470;-65
2023/01/07 12:30:56;;;;;;;1.65;1.10;;;21.60;57.90;;;;;;5018641;28;20086;-66
2023/01/07 12:33:58;;;;;;;2.20;1.20;;;21.60;57.80;;;;;;5027206;28;20034;-66
2023/01/07 12:36:42;;;;;;;1.58;1.10;;;21.60;57.80;;;;;;5026017;28;20057;-66
2023/01/07 12:39:21;;;;;;;2.00;1.10;;;21.60;57.80;;;;;;5020194;28;20084;-65
2023/01/07 12:41:56;;;;;;;1.65;1.10;;;21.60;57.80;;;;;;5017848;28;20104;-66
2023/01/07 12:44:22;;;;;;;1.45;1.00;;;21.60;57.80;;;;;;5020921;28;20042;-65
2023/01/07 12:47:11;;;;;;;2.00;1.10;;;21.60;57.70;;;;;;5021073;28;20071;-65
2023/01/07 12:49:37;;;;;;;;;;;21.60;57.70;;;;;;5018500;28;20063;-65
2023/01/07 12:53:03;;;;;;;2.00;1.10;;;21.70;57.70;;;;;;5017330;28;20027;-66
2023/01/07 12:55:33;;;;;;;1.45;1.00;;;21.70;57.70;;;;;;5026203;28;20542;-66
2023/01/07 12:58:20;;;;;;;2.35;1.08;;;21.70;57.60;;;;;;5024268;28;20052;-65
2023/01/07 13:00:59;;;;;;;2.03;1.10;;;21.70;57.60;;;;;;5021293;28;20057;-66
2023/01/07 13:03:50;;;;;;;1.92;0.98;;;21.70;57.60;;;;;;5017759;28;20449;-65
2023/01/07 13:06:53;;;;;;;1.42;0.95;;;21.80;57.70;;;;;;5020801;28;20140;-65
2023/01/07 13:09:39;;;;;;;1.45;1.00;;;21.70;57.60;;;;;;5018733;28;20021;-65
2023/01/07 13:15:08;;;;;;;1.77;1.10;;;21.80;57.60;;;;;;5016224;28;20082;-65
2023/01/07 13:17:34;;;;;;;2.42;1.05;;;21.70;57.60;;;;;;5018404;28;20140;-66